sensor_id;sensor_type;location;lat;lon;timestamp;temperature;humidity
16347;DHT22;8283;48.504;13.734;2023-04-06T00:00:35;8.90;45.00
16347;DHT22;8283;48.504;13.734;2023-04-06T00:03:19;8.80;45.00
16347;DHT22;8283;48.504;13.734;2023-04-06T00:06:04;8.80;45.10
16347;DHT22;8283;48.504;13.734;2023-04-06T00:08:49;8.80;45.10
16347;DHT22;8283;48.504;13.734;2023-04-06T00:11:33;8.80;45.20
16347;DHT22;8283;48.504;13.734;2023-04-06T00:14:18;8.80;45.30
16347;DHT22;8283;48.504;13.734;2023-04-06T00:17:03;9.00;45.40
16347;DHT22;8283;48.504;13.734;2023-04-06T00:19:47;8.80;45.30
16347;DHT22;8283;48.504;13.734;2023-04-06T00:22:33;8.60;45.20
16347;DHT22;8283;48.504;13.734;2023-04-06T00:25:17;8.70;45.30
16347;DHT22;8283;48.504;13.734;2023-04-06T00:28:02;8.70;45.40
16347;DHT22;8283;48.504;13.734;2023-04-06T00:30:47;8.70;45.30
16347;DHT22;8283;48.504;13.734;2023-04-06T00:33:32;8.70;45.40
16347;DHT22;8283;48.504;13.734;2023-04-06T00:36:17;8.70;45.30
16347;DHT22;8283;48.504;13.734;2023-04-06T00:39:01;8.60;45.20
16347;DHT22;8283;48.504;13.734;2023-04-06T00:41:49;8.60;45.30
16347;DHT22;8283;48.504;13.734;2023-04-06T00:44:35;8.50;45.40
16347;DHT22;8283;48.504;13.734;2023-04-06T00:47:20;8.60;45.30
16347;DHT22;8283;48.504;13.734;2023-04-06T00:50:05;8.50;45.40
16347;DHT22;8283;48.504;13.734;2023-04-06T00:52:50;8.40;45.30
16347;DHT22;8283;48.504;13.734;2023-04-06T00:55:43;8.40;45.20
16347;DHT22;8283;48.504;13.734;2023-04-06T00:58:28;8.30;45.00
16347;DHT22;8283;48.504;13.734;2023-04-06T01:01:21;8.20;45.00
16347;DHT22;8283;48.504;13.734;2023-04-06T01:04:07;8.20;45.00
16347;DHT22;8283;48.504;13.734;2023-04-06T01:06:58;8.10;45.00
16347;DHT22;8283;48.504;13.734;2023-04-06T01:09:48;8.10;45.60
16347;DHT22;8283;48.504;13.734;2023-04-06T01:12:39;8.00;45.00
16347;DHT22;8283;48.504;13.734;2023-04-06T01:15:29;8.10;45.10
16347;DHT22;8283;48.504;13.734;2023-04-06T01:18:14;7.90;45.00
16347;DHT22;8283;48.504;13.734;2023-04-06T01:21:05;7.80;45.00
16347;DHT22;8283;48.504;13.734;2023-04-06T01:23:53;7.80;45.10
16347;DHT22;8283;48.504;13.734;2023-04-06T01:26:44;7.10;44.70
16347;DHT22;8283;48.504;13.734;2023-04-06T01:29:29;7.60;45.00
16347;DHT22;8283;48.504;13.734;2023-04-06T01:32:14;7.60;45.10
16347;DHT22;8283;48.504;13.734;2023-04-06T01:35:06;7.50;45.10
16347;DHT22;8283;48.504;13.734;2023-04-06T01:37:54;7.40;45.00
16347;DHT22;8283;48.504;13.734;2023-04-06T01:40:46;7.30;45.10
16347;DHT22;8283;48.504;13.734;2023-04-06T01:43:30;7.30;45.20
16347;DHT22;8283;48.504;13.734;2023-04-06T01:46:20;7.20;45.30
16347;DHT22;8283;48.504;13.734;2023-04-06T01:49:05;7.10;45.30
16347;DHT22;8283;48.504;13.734;2023-04-06T01:51:54;7.10;45.30
16347;DHT22;8283;48.504;13.734;2023-04-06T01:54:39;7.10;45.40
16347;DHT22;8283;48.504;13.734;2023-04-06T01:57:33;7.00;45.40
16347;DHT22;8283;48.504;13.734;2023-04-06T02:00:30;6.90;45.50
16347;DHT22;8283;48.504;13.734;2023-04-06T02:03:14;6.90;45.50
16347;DHT22;8283;48.504;13.734;2023-04-06T02:05:59;6.80;45.60
16347;DHT22;8283;48.504;13.734;2023-04-06T02:08:50;6.80;45.60
16347;DHT22;8283;48.504;13.734;2023-04-06T02:11:35;6.70;45.70
16347;DHT22;8283;48.504;13.734;2023-04-06T02:14:20;6.70;45.70
16347;DHT22;8283;48.504;13.734;2023-04-06T02:17:09;6.60;45.70
16347;DHT22;8283;48.504;13.734;2023-04-06T02:19:54;6.70;45.70
16347;DHT22;8283;48.504;13.734;2023-04-06T02:22:39;6.50;45.70
16347;DHT22;8283;48.504;13.734;2023-04-06T02:25:24;6.50;45.80
16347;DHT22;8283;48.504;13.734;2023-04-06T02:28:09;6.50;45.80
16347;DHT22;8283;48.504;13.734;2023-04-06T02:30:53;6.40;45.90
16347;DHT22;8283;48.504;13.734;2023-04-06T02:33:42;6.40;45.90
16347;DHT22;8283;48.504;13.734;2023-04-06T02:36:28;6.30;45.90
16347;DHT22;8283;48.504;13.734;2023-04-06T02:39:13;6.30;46.00
16347;DHT22;8283;48.504;13.734;2023-04-06T02:41:58;6.30;46.10
16347;DHT22;8283;48.504;13.734;2023-04-06T02:44:44;6.30;46.10
16347;DHT22;8283;48.504;13.734;2023-04-06T02:47:29;6.20;46.10
16347;DHT22;8283;48.504;13.734;2023-04-06T02:50:14;6.20;46.10
16347;DHT22;8283;48.504;13.734;2023-04-06T02:53:06;6.10;46.10
16347;DHT22;8283;48.504;13.734;2023-04-06T02:55:52;6.10;46.20
16347;DHT22;8283;48.504;13.734;2023-04-06T02:58:37;6.10;46.20
16347;DHT22;8283;48.504;13.734;2023-04-06T03:01:22;6.00;46.30
16347;DHT22;8283;48.504;13.734;2023-04-06T03:04:12;6.00;46.50
16347;DHT22;8283;48.504;13.734;2023-04-06T03:06:57;5.90;46.40
16347;DHT22;8283;48.504;13.734;2023-04-06T03:09:51;5.90;46.50
16347;DHT22;8283;48.504;13.734;2023-04-06T03:12:36;5.80;46.50
16347;DHT22;8283;48.504;13.734;2023-04-06T03:15:40;5.80;46.50
16347;DHT22;8283;48.504;13.734;2023-04-06T03:18:31;5.80;46.50
16347;DHT22;8283;48.504;13.734;2023-04-06T03:21:16;5.80;46.50
16347;DHT22;8283;48.504;13.734;2023-04-06T03:24:07;5.70;46.50
16347;DHT22;8283;48.504;13.734;2023-04-06T03:26:51;5.70;46.60
16347;DHT22;8283;48.504;13.734;2023-04-06T03:29:36;5.70;46.60
16347;DHT22;8283;48.504;13.734;2023-04-06T03:32:22;5.60;46.70
16347;DHT22;8283;48.504;13.734;2023-04-06T03:35:07;5.60;46.70
16347;DHT22;8283;48.504;13.734;2023-04-06T03:37:52;5.60;46.70
16347;DHT22;8283;48.504;13.734;2023-04-06T03:40:37;6.60;47.30
16347;DHT22;8283;48.504;13.734;2023-04-06T03:43:22;5.50;46.90
16347;DHT22;8283;48.504;13.734;2023-04-06T03:46:06;5.50;46.90
16347;DHT22;8283;48.504;13.734;2023-04-06T03:48:51;5.50;47.10
16347;DHT22;8283;48.504;13.734;2023-04-06T03:51:38;5.40;47.60
16347;DHT22;8283;48.504;13.734;2023-04-06T03:54:22;5.40;48.30
16347;DHT22;8283;48.504;13.734;2023-04-06T03:57:07;5.40;47.80
16347;DHT22;8283;48.504;13.734;2023-04-06T03:59:51;6.60;48.50
16347;DHT22;8283;48.504;13.734;2023-04-06T04:02:36;5.30;47.50
16347;DHT22;8283;48.504;13.734;2023-04-06T04:05:20;5.30;47.40
16347;DHT22;8283;48.504;13.734;2023-04-06T04:08:09;5.30;47.50
16347;DHT22;8283;48.504;13.734;2023-04-06T04:10:54;5.20;47.40
16347;DHT22;8283;48.504;13.734;2023-04-06T04:13:39;5.20;47.50
16347;DHT22;8283;48.504;13.734;2023-04-06T04:16:25;5.20;47.50
16347;DHT22;8283;48.504;13.734;2023-04-06T04:19:09;5.20;47.50
16347;DHT22;8283;48.504;13.734;2023-04-06T04:21:53;5.20;47.50
16347;DHT22;8283;48.504;13.734;2023-04-06T04:24:45;5.20;47.60
16347;DHT22;8283;48.504;13.734;2023-04-06T04:27:30;5.20;47.50
16347;DHT22;8283;48.504;13.734;2023-04-06T04:30:15;5.10;48.20
16347;DHT22;8283;48.504;13.734;2023-04-06T04:32:59;5.10;47.70
16347;DHT22;8283;48.504;13.734;2023-04-06T04:35:45;5.10;47.80
16347;DHT22;8283;48.504;13.734;2023-04-06T04:38:34;5.10;47.70
16347;DHT22;8283;48.504;13.734;2023-04-06T04:41:19;5.10;48.40
16347;DHT22;8283;48.504;13.734;2023-04-06T04:44:05;5.10;47.80
16347;DHT22;8283;48.504;13.734;2023-04-06T04:46:50;5.10;47.80
16347;DHT22;8283;48.504;13.734;2023-04-06T04:49:37;5.10;47.90
16347;DHT22;8283;48.504;13.734;2023-04-06T04:52:21;5.10;48.00
16347;DHT22;8283;48.504;13.734;2023-04-06T04:55:16;5.00;48.10
16347;DHT22;8283;48.504;13.734;2023-04-06T04:58:04;5.00;48.00
16347;DHT22;8283;48.504;13.734;2023-04-06T05:01:03;5.00;48.00
16347;DHT22;8283;48.504;13.734;2023-04-06T05:03:48;5.00;48.10
16347;DHT22;8283;48.504;13.734;2023-04-06T05:06:34;5.00;48.10
16347;DHT22;8283;48.504;13.734;2023-04-06T05:09:18;5.00;48.10
16347;DHT22;8283;48.504;13.734;2023-04-06T05:12:03;5.00;48.20
16347;DHT22;8283;48.504;13.734;2023-04-06T05:14:53;5.10;48.30
16347;DHT22;8283;48.504;13.734;2023-04-06T05:17:40;5.10;49.00
16347;DHT22;8283;48.504;13.734;2023-04-06T05:20:27;5.10;48.40
16347;DHT22;8283;48.504;13.734;2023-04-06T05:23:11;5.10;48.50
16347;DHT22;8283;48.504;13.734;2023-04-06T05:25:57;5.10;48.40
16347;DHT22;8283;48.504;13.734;2023-04-06T05:28:42;5.10;48.50
16347;DHT22;8283;48.504;13.734;2023-04-06T05:31:29;5.10;48.60
16347;DHT22;8283;48.504;13.734;2023-04-06T05:34:13;5.20;48.70
16347;DHT22;8283;48.504;13.734;2023-04-06T05:36:58;5.20;48.70
16347;DHT22;8283;48.504;13.734;2023-04-06T05:39:43;5.20;48.80
16347;DHT22;8283;48.504;13.734;2023-04-06T05:42:36;5.20;48.80
16347;DHT22;8283;48.504;13.734;2023-04-06T05:45:22;5.30;49.30
16347;DHT22;8283;48.504;13.734;2023-04-06T05:48:12;5.30;48.90
16347;DHT22;8283;48.504;13.734;2023-04-06T05:50:56;5.30;49.00
16347;DHT22;8283;48.504;13.734;2023-04-06T05:53:47;5.30;49.00
16347;DHT22;8283;48.504;13.734;2023-04-06T05:56:32;5.30;49.00
16347;DHT22;8283;48.504;13.734;2023-04-06T05:59:17;5.40;49.10
16347;DHT22;8283;48.504;13.734;2023-04-06T06:02:03;5.40;49.20
16347;DHT22;8283;48.504;13.734;2023-04-06T06:04:50;5.70;49.40
16347;DHT22;8283;48.504;13.734;2023-04-06T06:07:36;5.50;49.30
16347;DHT22;8283;48.504;13.734;2023-04-06T06:10:21;5.50;49.30
16347;DHT22;8283;48.504;13.734;2023-04-06T06:13:05;5.50;49.30
16347;DHT22;8283;48.504;13.734;2023-04-06T06:15:51;5.60;49.40
16347;DHT22;8283;48.504;13.734;2023-04-06T06:18:37;5.60;49.40
16347;DHT22;8283;48.504;13.734;2023-04-06T06:21:22;5.70;49.50
16347;DHT22;8283;48.504;13.734;2023-04-06T06:24:07;5.70;50.30
16347;DHT22;8283;48.504;13.734;2023-04-06T06:26:51;5.90;50.00
16347;DHT22;8283;48.504;13.734;2023-04-06T06:29:37;6.00;50.20
16347;DHT22;8283;48.504;13.734;2023-04-06T06:32:22;6.10;50.80
16347;DHT22;8283;48.504;13.734;2023-04-06T06:35:09;6.30;50.40
16347;DHT22;8283;48.504;13.734;2023-04-06T06:37:54;6.50;50.40
16347;DHT22;8283;48.504;13.734;2023-04-06T06:40:41;6.70;50.30
16347;DHT22;8283;48.504;13.734;2023-04-06T06:43:26;6.90;50.30
16347;DHT22;8283;48.504;13.734;2023-04-06T06:46:17;7.20;50.40
16347;DHT22;8283;48.504;13.734;2023-04-06T06:49:01;7.40;50.40
16347;DHT22;8283;48.504;13.734;2023-04-06T06:51:47;7.60;50.40
16347;DHT22;8283;48.504;13.734;2023-04-06T06:54:31;7.90;50.70
16347;DHT22;8283;48.504;13.734;2023-04-06T06:57:16;8.10;50.30
16347;DHT22;8283;48.504;13.734;2023-04-06T07:00:01;8.40;50.30
16347;DHT22;8283;48.504;13.734;2023-04-06T07:02:48;8.60;50.30
16347;DHT22;8283;48.504;13.734;2023-04-06T07:05:32;8.80;50.20
16347;DHT22;8283;48.504;13.734;2023-04-06T07:08:17;9.10;50.20
16347;DHT22;8283;48.504;13.734;2023-04-06T07:11:01;9.40;50.10
16347;DHT22;8283;48.504;13.734;2023-04-06T07:13:47;9.60;49.90
16347;DHT22;8283;48.504;13.734;2023-04-06T07:16:31;9.80;49.80
16347;DHT22;8283;48.504;13.734;2023-04-06T07:19:17;10.10;49.70
16347;DHT22;8283;48.504;13.734;2023-04-06T07:22:02;10.30;49.60
16347;DHT22;8283;48.504;13.734;2023-04-06T07:24:48;10.60;49.60
16347;DHT22;8283;48.504;13.734;2023-04-06T07:27:32;10.80;49.50
16347;DHT22;8283;48.504;13.734;2023-04-06T07:30:17;10.90;49.40
16347;DHT22;8283;48.504;13.734;2023-04-06T07:33:03;11.20;49.40
16347;DHT22;8283;48.504;13.734;2023-04-06T07:35:48;11.50;49.30
16347;DHT22;8283;48.504;13.734;2023-04-06T07:38:33;11.70;49.30
16347;DHT22;8283;48.504;13.734;2023-04-06T07:41:18;12.00;49.30
16347;DHT22;8283;48.504;13.734;2023-04-06T07:44:03;12.30;49.30
16347;DHT22;8283;48.504;13.734;2023-04-06T07:46:47;12.50;49.10
16347;DHT22;8283;48.504;13.734;2023-04-06T07:49:32;12.80;49.10
16347;DHT22;8283;48.504;13.734;2023-04-06T07:52:18;13.10;49.20
16347;DHT22;8283;48.504;13.734;2023-04-06T07:55:03;13.30;49.10
16347;DHT22;8283;48.504;13.734;2023-04-06T07:57:47;13.60;49.10
16347;DHT22;8283;48.504;13.734;2023-04-06T08:00:32;13.80;49.10
16347;DHT22;8283;48.504;13.734;2023-04-06T08:03:17;14.10;49.00
16347;DHT22;8283;48.504;13.734;2023-04-06T08:06:02;14.30;49.10
16347;DHT22;8283;48.504;13.734;2023-04-06T08:08:46;14.60;49.10
16347;DHT22;8283;48.504;13.734;2023-04-06T08:11:31;14.90;49.60
16347;DHT22;8283;48.504;13.734;2023-04-06T08:14:16;15.10;49.00
16347;DHT22;8283;48.504;13.734;2023-04-06T08:17:00;15.40;49.00
16347;DHT22;8283;48.504;13.734;2023-04-06T08:19:45;15.60;49.00
16347;DHT22;8283;48.504;13.734;2023-04-06T08:22:29;15.90;48.80
16347;DHT22;8283;48.504;13.734;2023-04-06T08:25:14;16.20;48.80
16347;DHT22;8283;48.504;13.734;2023-04-06T08:27:58;16.50;48.80
16347;DHT22;8283;48.504;13.734;2023-04-06T08:30:43;16.80;48.70
16347;DHT22;8283;48.504;13.734;2023-04-06T08:33:28;17.20;48.70
16347;DHT22;8283;48.504;13.734;2023-04-06T08:36:14;17.50;48.80
16347;DHT22;8283;48.504;13.734;2023-04-06T08:38:59;17.80;48.60
16347;DHT22;8283;48.504;13.734;2023-04-06T08:41:44;18.20;48.60
16347;DHT22;8283;48.504;13.734;2023-04-06T08:44:29;18.50;48.30
16347;DHT22;8283;48.504;13.734;2023-04-06T08:47:16;18.90;47.80
16347;DHT22;8283;48.504;13.734;2023-04-06T08:50:03;19.20;47.60
16347;DHT22;8283;48.504;13.734;2023-04-06T08:52:49;19.50;46.60
16347;DHT22;8283;48.504;13.734;2023-04-06T08:55:34;19.80;47.20
16347;DHT22;8283;48.504;13.734;2023-04-06T08:58:19;20.10;46.60
16347;DHT22;8283;48.504;13.734;2023-04-06T09:01:11;20.30;46.90
16347;DHT22;8283;48.504;13.734;2023-04-06T09:03:58;20.60;44.90
16347;DHT22;8283;48.504;13.734;2023-04-06T09:06:43;20.80;45.40
16347;DHT22;8283;48.504;13.734;2023-04-06T09:09:27;21.10;45.30
16347;DHT22;8283;48.504;13.734;2023-04-06T09:12:28;21.30;45.10
16347;DHT22;8283;48.504;13.734;2023-04-06T09:15:19;21.60;43.60
16347;DHT22;8283;48.504;13.734;2023-04-06T09:18:04;21.80;43.70
16347;DHT22;8283;48.504;13.734;2023-04-06T09:21:00;22.00;44.50
16347;DHT22;8283;48.504;13.734;2023-04-06T09:23:45;22.10;42.30
16347;DHT22;8283;48.504;13.734;2023-04-06T09:26:30;22.20;43.00
16347;DHT22;8283;48.504;13.734;2023-04-06T09:29:24;22.10;42.40
16347;DHT22;8283;48.504;13.734;2023-04-06T09:32:11;22.10;39.40
16347;DHT22;8283;48.504;13.734;2023-04-06T09:35:08;21.90;39.10
16347;DHT22;8283;48.504;13.734;2023-04-06T09:37:53;21.60;36.90
16347;DHT22;8283;48.504;13.734;2023-04-06T09:40:50;21.20;37.90
16347;DHT22;8283;48.504;13.734;2023-04-06T09:43:35;20.90;37.50
16347;DHT22;8283;48.504;13.734;2023-04-06T09:46:21;20.60;39.20
16347;DHT22;8283;48.504;13.734;2023-04-06T09:49:08;20.30;38.90
16347;DHT22;8283;48.504;13.734;2023-04-06T09:52:02;20.20;39.50
16347;DHT22;8283;48.504;13.734;2023-04-06T09:54:50;20.20;39.30
16347;DHT22;8283;48.504;13.734;2023-04-06T09:57:45;20.10;38.60
16347;DHT22;8283;48.504;13.734;2023-04-06T10:00:51;20.20;39.90
16347;DHT22;8283;48.504;13.734;2023-04-06T10:06:34;20.50;39.60
16347;DHT22;8283;48.504;13.734;2023-04-06T10:09:22;20.80;41.30
16347;DHT22;8283;48.504;13.734;2023-04-06T10:12:09;21.00;40.80
16347;DHT22;8283;48.504;13.734;2023-04-06T10:14:54;21.30;41.10
16347;DHT22;8283;48.504;13.734;2023-04-06T10:17:39;21.70;41.00
16347;DHT22;8283;48.504;13.734;2023-04-06T10:20:29;22.00;41.20
16347;DHT22;8283;48.504;13.734;2023-04-06T10:26:22;22.50;39.10
16347;DHT22;8283;48.504;13.734;2023-04-06T10:29:07;22.60;39.00
16347;DHT22;8283;48.504;13.734;2023-04-06T10:31:51;22.60;37.20
16347;DHT22;8283;48.504;13.734;2023-04-06T10:34:36;22.50;37.20
16347;DHT22;8283;48.504;13.734;2023-04-06T10:37:20;22.50;38.70
16347;DHT22;8283;48.504;13.734;2023-04-06T10:40:05;22.50;39.20
16347;DHT22;8283;48.504;13.734;2023-04-06T10:42:52;22.60;39.00
16347;DHT22;8283;48.504;13.734;2023-04-06T10:45:37;22.70;39.00
16347;DHT22;8283;48.504;13.734;2023-04-06T10:48:22;22.90;38.10
16347;DHT22;8283;48.504;13.734;2023-04-06T10:51:13;23.00;36.20
16347;DHT22;8283;48.504;13.734;2023-04-06T10:53:58;22.90;36.60
16347;DHT22;8283;48.504;13.734;2023-04-06T10:56:43;22.70;36.00
16347;DHT22;8283;48.504;13.734;2023-04-06T10:59:29;22.50;35.20
16347;DHT22;8283;48.504;13.734;2023-04-06T11:02:20;22.20;35.60
16347;DHT22;8283;48.504;13.734;2023-04-06T11:05:06;21.90;35.20
16347;DHT22;8283;48.504;13.734;2023-04-06T11:07:50;21.60;35.50
16347;DHT22;8283;48.504;13.734;2023-04-06T11:10:35;21.40;36.10
16347;DHT22;8283;48.504;13.734;2023-04-06T11:13:19;21.20;36.30
16347;DHT22;8283;48.504;13.734;2023-04-06T11:16:04;21.20;36.10
16347;DHT22;8283;48.504;13.734;2023-04-06T11:18:50;21.20;36.80
16347;DHT22;8283;48.504;13.734;2023-04-06T11:21:42;21.30;37.10
16347;DHT22;8283;48.504;13.734;2023-04-06T11:24:33;21.50;37.10
16347;DHT22;8283;48.504;13.734;2023-04-06T11:27:18;21.60;37.00
16347;DHT22;8283;48.504;13.734;2023-04-06T11:30:04;21.70;36.90
16347;DHT22;8283;48.504;13.734;2023-04-06T11:32:49;21.90;38.00
16347;DHT22;8283;48.504;13.734;2023-04-06T11:35:34;22.20;37.30
16347;DHT22;8283;48.504;13.734;2023-04-06T11:38:19;22.30;35.90
16347;DHT22;8283;48.504;13.734;2023-04-06T11:41:04;22.40;35.80
16347;DHT22;8283;48.504;13.734;2023-04-06T11:43:49;22.50;35.70
16347;DHT22;8283;48.504;13.734;2023-04-06T11:46:33;22.40;35.20
16347;DHT22;8283;48.504;13.734;2023-04-06T11:49:19;22.40;35.40
16347;DHT22;8283;48.504;13.734;2023-04-06T11:52:14;22.30;34.60
16347;DHT22;8283;48.504;13.734;2023-04-06T11:55:10;22.20;34.30
16347;DHT22;8283;48.504;13.734;2023-04-06T11:57:55;22.20;35.60
16347;DHT22;8283;48.504;13.734;2023-04-06T12:00:39;22.30;35.60
16347;DHT22;8283;48.504;13.734;2023-04-06T12:03:28;22.40;34.90
16347;DHT22;8283;48.504;13.734;2023-04-06T12:06:13;22.50;35.70
16347;DHT22;8283;48.504;13.734;2023-04-06T12:08:58;22.50;35.00
16347;DHT22;8283;48.504;13.734;2023-04-06T12:11:43;22.40;35.10
16347;DHT22;8283;48.504;13.734;2023-04-06T12:14:28;22.20;33.20
16347;DHT22;8283;48.504;13.734;2023-04-06T12:17:14;22.00;33.70
16347;DHT22;8283;48.504;13.734;2023-04-06T12:19:59;21.80;34.30
16347;DHT22;8283;48.504;13.734;2023-04-06T12:22:44;21.60;34.80
16347;DHT22;8283;48.504;13.734;2023-04-06T12:25:28;21.60;35.00
16347;DHT22;8283;48.504;13.734;2023-04-06T12:28:13;21.60;35.10
16347;DHT22;8283;48.504;13.734;2023-04-06T12:30:57;21.60;34.70
16347;DHT22;8283;48.504;13.734;2023-04-06T12:33:43;21.60;35.00
16347;DHT22;8283;48.504;13.734;2023-04-06T12:36:29;21.60;34.60
16347;DHT22;8283;48.504;13.734;2023-04-06T12:39:14;21.50;34.40
16347;DHT22;8283;48.504;13.734;2023-04-06T12:41:58;21.40;34.60
16347;DHT22;8283;48.504;13.734;2023-04-06T12:44:43;21.40;34.00
16347;DHT22;8283;48.504;13.734;2023-04-06T12:47:28;21.30;34.50
16347;DHT22;8283;48.504;13.734;2023-04-06T12:50:12;21.40;36.00
16347;DHT22;8283;48.504;13.734;2023-04-06T12:52:57;21.50;35.60
16347;DHT22;8283;48.504;13.734;2023-04-06T12:55:42;21.70;35.40
16347;DHT22;8283;48.504;13.734;2023-04-06T12:58:26;21.90;34.80
16347;DHT22;8283;48.504;13.734;2023-04-06T13:01:13;22.10;35.00
16347;DHT22;8283;48.504;13.734;2023-04-06T13:03:57;22.30;35.00
16347;DHT22;8283;48.504;13.734;2023-04-06T13:06:43;22.50;35.00
16347;DHT22;8283;48.504;13.734;2023-04-06T13:09:28;22.60;34.80
16347;DHT22;8283;48.504;13.734;2023-04-06T13:12:12;22.70;34.00
16347;DHT22;8283;48.504;13.734;2023-04-06T13:14:57;22.70;34.40
16347;DHT22;8283;48.504;13.734;2023-04-06T13:17:41;22.70;34.40
16347;DHT22;8283;48.504;13.734;2023-04-06T13:20:26;22.70;34.40
16347;DHT22;8283;48.504;13.734;2023-04-06T13:23:11;22.90;34.20
16347;DHT22;8283;48.504;13.734;2023-04-06T13:25:58;23.00;34.40
16347;DHT22;8283;48.504;13.734;2023-04-06T13:28:43;23.00;33.50
16347;DHT22;8283;48.504;13.734;2023-04-06T13:31:27;22.90;33.80
16347;DHT22;8283;48.504;13.734;2023-04-06T13:34:12;22.90;34.00
16347;DHT22;8283;48.504;13.734;2023-04-06T13:36:56;23.00;33.30
16347;DHT22;8283;48.504;13.734;2023-04-06T13:39:41;23.00;34.20
16347;DHT22;8283;48.504;13.734;2023-04-06T13:42:27;23.00;34.10
16347;DHT22;8283;48.504;13.734;2023-04-06T13:45:11;23.00;32.70
16347;DHT22;8283;48.504;13.734;2023-04-06T13:47:56;22.90;32.20
16347;DHT22;8283;48.504;13.734;2023-04-06T13:50:41;22.80;32.80
16347;DHT22;8283;48.504;13.734;2023-04-06T13:53:25;22.60;33.70
16347;DHT22;8283;48.504;13.734;2023-04-06T13:56:10;22.70;34.10
16347;DHT22;8283;48.504;13.734;2023-04-06T13:58:55;22.90;35.00
16347;DHT22;8283;48.504;13.734;2023-04-06T14:01:40;23.20;34.50
16347;DHT22;8283;48.504;13.734;2023-04-06T14:04:24;23.50;34.60
16347;DHT22;8283;48.504;13.734;2023-04-06T14:07:08;23.90;34.60
16347;DHT22;8283;48.504;13.734;2023-04-06T14:09:53;24.20;33.00
16347;DHT22;8283;48.504;13.734;2023-04-06T14:12:37;24.40;32.80
16347;DHT22;8283;48.504;13.734;2023-04-06T14:15:21;24.50;33.30
16347;DHT22;8283;48.504;13.734;2023-04-06T14:18:08;24.70;32.30
16347;DHT22;8283;48.504;13.734;2023-04-06T14:20:55;24.70;31.40
16347;DHT22;8283;48.504;13.734;2023-04-06T14:23:40;24.70;31.40
16347;DHT22;8283;48.504;13.734;2023-04-06T14:26:25;24.60;31.90
16347;DHT22;8283;48.504;13.734;2023-04-06T14:29:10;24.60;32.40
16347;DHT22;8283;48.504;13.734;2023-04-06T14:31:54;24.70;32.90
16347;DHT22;8283;48.504;13.734;2023-04-06T14:34:43;24.80;32.60
16347;DHT22;8283;48.504;13.734;2023-04-06T14:37:28;25.00;32.30
16347;DHT22;8283;48.504;13.734;2023-04-06T14:40:12;25.20;32.40
16347;DHT22;8283;48.504;13.734;2023-04-06T14:42:56;25.30;32.60
16347;DHT22;8283;48.504;13.734;2023-04-06T14:45:41;25.30;31.10
16347;DHT22;8283;48.504;13.734;2023-04-06T14:48:25;25.30;31.00
16347;DHT22;8283;48.504;13.734;2023-04-06T14:51:09;25.20;31.40
16347;DHT22;8283;48.504;13.734;2023-04-06T14:53:54;25.10;30.70
16347;DHT22;8283;48.504;13.734;2023-04-06T14:56:38;25.00;31.10
16347;DHT22;8283;48.504;13.734;2023-04-06T14:59:23;24.90;30.70
16347;DHT22;8283;48.504;13.734;2023-04-06T15:02:07;24.80;30.50
16347;DHT22;8283;48.504;13.734;2023-04-06T15:04:52;24.70;30.30
16347;DHT22;8283;48.504;13.734;2023-04-06T15:07:36;24.50;30.30
16347;DHT22;8283;48.504;13.734;2023-04-06T15:10:21;24.30;30.10
16347;DHT22;8283;48.504;13.734;2023-04-06T15:13:05;24.10;30.20
16347;DHT22;8283;48.504;13.734;2023-04-06T15:15:50;23.90;30.60
16347;DHT22;8283;48.504;13.734;2023-04-06T15:18:35;23.80;30.70
16347;DHT22;8283;48.504;13.734;2023-04-06T15:21:20;23.70;30.90
16347;DHT22;8283;48.504;13.734;2023-04-06T15:24:05;23.50;30.10
16347;DHT22;8283;48.504;13.734;2023-04-06T15:26:52;23.40;30.80
16347;DHT22;8283;48.504;13.734;2023-04-06T15:29:36;23.30;30.50
16347;DHT22;8283;48.504;13.734;2023-04-06T15:32:20;23.20;30.20
16347;DHT22;8283;48.504;13.734;2023-04-06T15:35:09;23.10;30.30
16347;DHT22;8283;48.504;13.734;2023-04-06T15:37:57;23.00;30.60
16347;DHT22;8283;48.504;13.734;2023-04-06T15:40:46;22.90;30.50
16347;DHT22;8283;48.504;13.734;2023-04-06T15:43:30;22.80;31.00
16347;DHT22;8283;48.504;13.734;2023-04-06T15:46:14;22.60;30.60
16347;DHT22;8283;48.504;13.734;2023-04-06T15:48:59;22.50;30.00
16347;DHT22;8283;48.504;13.734;2023-04-06T15:51:43;22.40;30.70
16347;DHT22;8283;48.504;13.734;2023-04-06T15:54:27;22.30;30.10
16347;DHT22;8283;48.504;13.734;2023-04-06T15:57:12;22.10;30.30
16347;DHT22;8283;48.504;13.734;2023-04-06T15:59:57;22.00;30.90
16347;DHT22;8283;48.504;13.734;2023-04-06T16:02:42;21.90;31.30
16347;DHT22;8283;48.504;13.734;2023-04-06T16:05:29;21.70;31.00
16347;DHT22;8283;48.504;13.734;2023-04-06T16:08:15;21.60;30.20
16347;DHT22;8283;48.504;13.734;2023-04-06T16:10:59;21.30;30.50
16347;DHT22;8283;48.504;13.734;2023-04-06T16:13:44;21.10;31.00
16347;DHT22;8283;48.504;13.734;2023-04-06T16:16:28;20.90;31.00
16347;DHT22;8283;48.504;13.734;2023-04-06T16:19:13;20.70;30.70
16347;DHT22;8283;48.504;13.734;2023-04-06T16:21:58;20.50;31.20
16347;DHT22;8283;48.504;13.734;2023-04-06T16:24:42;20.30;31.20
16347;DHT22;8283;48.504;13.734;2023-04-06T16:27:27;19.70;31.00
16347;DHT22;8283;48.504;13.734;2023-04-06T16:30:11;19.80;31.50
16347;DHT22;8283;48.504;13.734;2023-04-06T16:32:56;19.60;31.60
16347;DHT22;8283;48.504;13.734;2023-04-06T16:35:47;19.40;31.80
16347;DHT22;8283;48.504;13.734;2023-04-06T16:38:31;19.20;32.20
16347;DHT22;8283;48.504;13.734;2023-04-06T16:41:19;19.10;32.10
16347;DHT22;8283;48.504;13.734;2023-04-06T16:44:04;18.90;32.20
16347;DHT22;8283;48.504;13.734;2023-04-06T16:46:48;18.70;32.20
16347;DHT22;8283;48.504;13.734;2023-04-06T16:49:33;18.50;32.20
16347;DHT22;8283;48.504;13.734;2023-04-06T16:52:17;18.40;32.30
16347;DHT22;8283;48.504;13.734;2023-04-06T16:55:02;18.20;32.40
16347;DHT22;8283;48.504;13.734;2023-04-06T16:57:46;18.10;33.00
16347;DHT22;8283;48.504;13.734;2023-04-06T17:00:32;17.90;32.50
16347;DHT22;8283;48.504;13.734;2023-04-06T17:03:16;17.70;32.60
16347;DHT22;8283;48.504;13.734;2023-04-06T17:06:01;17.60;32.70
16347;DHT22;8283;48.504;13.734;2023-04-06T17:08:46;17.40;32.80
16347;DHT22;8283;48.504;13.734;2023-04-06T17:11:31;17.30;33.00
16347;DHT22;8283;48.504;13.734;2023-04-06T17:14:15;17.10;33.00
16347;DHT22;8283;48.504;13.734;2023-04-06T17:17:00;17.00;33.10
16347;DHT22;8283;48.504;13.734;2023-04-06T17:19:44;16.80;33.20
16347;DHT22;8283;48.504;13.734;2023-04-06T17:22:29;16.60;33.30
16347;DHT22;8283;48.504;13.734;2023-04-06T17:25:15;16.50;33.40
16347;DHT22;8283;48.504;13.734;2023-04-06T17:27:59;16.30;33.50
16347;DHT22;8283;48.504;13.734;2023-04-06T17:30:44;16.20;33.60
16347;DHT22;8283;48.504;13.734;2023-04-06T17:33:29;16.00;33.60
16347;DHT22;8283;48.504;13.734;2023-04-06T17:36:15;15.90;33.80
16347;DHT22;8283;48.504;13.734;2023-04-06T17:38:59;15.70;33.90
16347;DHT22;8283;48.504;13.734;2023-04-06T17:41:44;15.60;33.90